ICE1553 BIKF-BIAR
Flight info
| Callsign | ICE1553 |
|---|---|
| Flight time | 0h 51m |
| Altitude | 23000 |
| Route | LUTER3C LUTER DCT ASKUR |
| Aircraft | B752/M-SDE2E3FGHIJ3J4J7RWXY/LB1 |
Departure
| Time | 2026-04-20 21:25 |
|---|---|
| Airport | Keflavik International Airport (BIKF) |
Arrival
| Time | 2026-04-20 22:16 |
|---|---|
| Airport | Akureyri International Airport (BIAR) |
| Time | Latitude | Longitude | Altitude | Speed | Heading |
|---|---|---|---|---|---|
| 2026-04-20 21:01 | 63.99273 | -22.62313 | 143 ft | 0 kts | 360° |
| 2026-04-20 21:04 | 63.99280 | -22.62314 | 143 ft | 0 kts | 0° |
| 2026-04-20 21:18 | 63.99279 | -22.62314 | 143 ft | 1 kts | 1° |
| 2026-04-20 21:18 | 63.99265 | -22.62314 | 144 ft | 2 kts | 0° |
| 2026-04-20 21:18 | 63.99250 | -22.62314 | 144 ft | 2 kts | 0° |
| 2026-04-20 21:18 | 63.99235 | -22.62314 | 144 ft | 2 kts | 0° |
| 2026-04-20 21:19 | 63.99220 | -22.62314 | 144 ft | 2 kts | 0° |
| 2026-04-20 21:19 | 63.99205 | -22.62314 | 143 ft | 2 kts | 6° |
| 2026-04-20 21:19 | 63.99191 | -22.62326 | 143 ft | 2 kts | 33° |
| 2026-04-20 21:20 | 63.99173 | -22.62379 | 142 ft | 2 kts | 77° |
| 2026-04-20 21:20 | 63.99172 | -22.62399 | 142 ft | 1 kts | 91° |
| 2026-04-20 21:20 | 63.99172 | -22.62409 | 142 ft | 0 kts | 91° |
| 2026-04-20 21:22 | 63.99172 | -22.62381 | 142 ft | 4 kts | 90° |
| 2026-04-20 21:22 | 63.99173 | -22.62239 | 143 ft | 15 kts | 90° |
| 2026-04-20 21:22 | 63.99172 | -22.61962 | 143 ft | 17 kts | 91° |
| 2026-04-20 21:23 | 63.99172 | -22.61691 | 143 ft | 17 kts | 90° |
| 2026-04-20 21:23 | 63.99172 | -22.61366 | 143 ft | 21 kts | 91° |
| 2026-04-20 21:23 | 63.99173 | -22.61040 | 146 ft | 19 kts | 90° |
| 2026-04-20 21:23 | 63.99173 | -22.60733 | 147 ft | 18 kts | 91° |
| 2026-04-20 21:24 | 63.99144 | -22.60560 | 147 ft | 9 kts | 163° |
| 2026-04-20 21:24 | 63.99127 | -22.60554 | 147 ft | 2 kts | 177° |
| 2026-04-20 21:24 | 63.98888 | -22.60550 | 152 ft | 71 kts | 181° |
| 2026-04-20 21:24 | 63.98144 | -22.60550 | 163 ft | 141 kts | 180° |
| 2026-04-20 21:25 | 63.97060 | -22.60589 | 629 ft | 166 kts | 182° |
| 2026-04-20 21:25 | 63.95958 | -22.60688 | 1596 ft | 163 kts | 181° |
| 2026-04-20 21:25 | 63.94799 | -22.60785 | 2407 ft | 171 kts | 181° |
| 2026-04-20 21:25 | 63.93647 | -22.60883 | 3331 ft | 172 kts | 182° |
| 2026-04-20 21:26 | 63.92428 | -22.60591 | 3864 ft | 186 kts | 152° |
| 2026-04-20 21:26 | 63.91495 | -22.58525 | 4379 ft | 201 kts | 113° |
| 2026-04-20 21:26 | 63.90973 | -22.54638 | 5104 ft | 221 kts | 106° |
| 2026-04-20 21:26 | 63.90274 | -22.49153 | 5954 ft | 251 kts | 107° |
| 2026-04-20 21:27 | 63.89316 | -22.41876 | 5959 ft | 265 kts | 107° |
| 2026-04-20 21:27 | 63.88438 | -22.35302 | 5965 ft | 264 kts | 107° |
| 2026-04-20 21:27 | 63.87377 | -22.27416 | 5955 ft | 265 kts | 107° |
| 2026-04-20 21:27 | 63.86309 | -22.19535 | 5964 ft | 267 kts | 107° |
| 2026-04-20 21:28 | 63.85229 | -22.11600 | 5957 ft | 265 kts | 107° |
| 2026-04-20 21:28 | 63.84207 | -22.04135 | 5959 ft | 264 kts | 107° |
| 2026-04-20 21:28 | 63.84134 | -21.96202 | 5963 ft | 266 kts | 80° |
| 2026-04-20 21:28 | 63.84729 | -21.87966 | 5958 ft | 264 kts | 80° |
| 2026-04-20 21:29 | 63.85303 | -21.80284 | 5939 ft | 266 kts | 80° |
| 2026-04-20 21:29 | 63.85905 | -21.72302 | 5928 ft | 266 kts | 80° |
| 2026-04-20 21:29 | 63.86505 | -21.64324 | 5938 ft | 266 kts | 80° |
| 2026-04-20 21:29 | 63.87121 | -21.56089 | 6986 ft | 285 kts | 80° |
| 2026-04-20 21:30 | 63.87754 | -21.47550 | 6925 ft | 264 kts | 80° |
| 2026-04-20 21:30 | 63.88641 | -21.39500 | 7301 ft | 279 kts | 61° |
| 2026-04-20 21:30 | 63.90311 | -21.32099 | 9209 ft | 279 kts | 63° |
| 2026-04-20 21:30 | 63.92109 | -21.24136 | 9928 ft | 293 kts | 63° |
| 2026-04-20 21:31 | 63.93892 | -21.16286 | 9926 ft | 279 kts | 63° |
| 2026-04-20 21:31 | 63.95564 | -21.08916 | 9932 ft | 282 kts | 63° |
| 2026-04-20 21:31 | 63.97112 | -21.02079 | 9928 ft | 280 kts | 63° |
| 2026-04-20 21:31 | 63.98582 | -20.95566 | 9917 ft | 281 kts | 63° |
| 2026-04-20 21:32 | 64.00320 | -20.87839 | 9914 ft | 283 kts | 63° |
| 2026-04-20 21:32 | 64.02144 | -20.79703 | 10837 ft | 311 kts | 63° |
| 2026-04-20 21:32 | 64.04207 | -20.70461 | 11589 ft | 348 kts | 63° |
| 2026-04-20 21:32 | 64.06403 | -20.60583 | 11942 ft | 364 kts | 63° |
| 2026-04-20 21:33 | 64.08619 | -20.50560 | 12962 ft | 364 kts | 63° |
| 2026-04-20 21:33 | 64.10805 | -20.40710 | 14339 ft | 372 kts | 60° |
| 2026-04-20 21:33 | 64.14108 | -20.32700 | 15598 ft | 380 kts | 33° |
| 2026-04-20 21:33 | 64.18403 | -20.26343 | 16900 ft | 388 kts | 33° |
| 2026-04-20 21:34 | 64.22940 | -20.19584 | 18290 ft | 393 kts | 33° |
| 2026-04-20 21:34 | 64.27284 | -20.13095 | 19444 ft | 400 kts | 33° |
| 2026-04-20 21:34 | 64.31742 | -20.06411 | 20537 ft | 408 kts | 33° |
| 2026-04-20 21:34 | 64.36408 | -19.99387 | 21618 ft | 415 kts | 32° |
| 2026-04-20 21:35 | 64.40835 | -19.92698 | 22584 ft | 422 kts | 32° |
| 2026-04-20 21:35 | 64.45827 | -19.85126 | 22425 ft | 441 kts | 32° |
| 2026-04-20 21:35 | 64.50725 | -19.77657 | 21349 ft | 423 kts | 32° |
| 2026-04-20 21:35 | 64.55376 | -19.70537 | 20345 ft | 406 kts | 32° |
| 2026-04-20 21:36 | 64.59912 | -19.63565 | 19400 ft | 390 kts | 32° |
| 2026-04-20 21:36 | 64.64208 | -19.56936 | 18555 ft | 371 kts | 32° |
| 2026-04-20 21:36 | 64.68227 | -19.50709 | 17835 ft | 368 kts | 32° |
| 2026-04-20 21:36 | 64.72414 | -19.44202 | 17031 ft | 370 kts | 32° |
| 2026-04-20 21:37 | 64.76588 | -19.37688 | 16187 ft | 365 kts | 32° |
| 2026-04-20 21:37 | 64.80698 | -19.31250 | 15359 ft | 362 kts | 33° |
| 2026-04-20 21:37 | 64.84776 | -19.24837 | 14528 ft | 360 kts | 33° |
| 2026-04-20 21:37 | 64.88820 | -19.18457 | 13684 ft | 356 kts | 33° |
| 2026-04-20 21:38 | 64.92872 | -19.12040 | 12847 ft | 352 kts | 33° |
| 2026-04-20 21:38 | 64.96464 | -19.06330 | 12102 ft | 347 kts | 33° |
| 2026-04-20 21:38 | 64.98449 | -19.03166 | 11696 ft | 344 kts | 33° |
| 2026-04-20 21:38 | 65.00393 | -19.00063 | 11290 ft | 342 kts | 33° |
| 2026-04-20 21:39 | 65.02360 | -18.96918 | 10891 ft | 339 kts | 33° |
| 2026-04-20 21:39 | 65.04291 | -18.93824 | 10519 ft | 330 kts | 33° |
| 2026-04-20 21:39 | 65.06158 | -18.90825 | 10314 ft | 317 kts | 33° |
| 2026-04-20 21:39 | 65.07930 | -18.87974 | 10264 ft | 301 kts | 33° |
| 2026-04-20 21:40 | 65.09596 | -18.85292 | 10246 ft | 285 kts | 33° |
| 2026-04-20 21:40 | 65.11170 | -18.82753 | 10214 ft | 267 kts | 33° |
| 2026-04-20 21:40 | 65.12688 | -18.80300 | 10192 ft | 260 kts | 32° |
| 2026-04-20 21:40 | 65.14208 | -18.77847 | 10204 ft | 271 kts | 32° |
| 2026-04-20 21:41 | 65.15791 | -18.75286 | 10095 ft | 274 kts | 33° |
| 2026-04-20 21:41 | 65.17352 | -18.72752 | 9915 ft | 272 kts | 33° |
| 2026-04-20 21:41 | 65.18903 | -18.70208 | 9665 ft | 267 kts | 36° |
| 2026-04-20 21:41 | 65.20180 | -18.67053 | 9611 ft | 269 kts | 49° |
| 2026-04-20 21:42 | 65.21371 | -18.63522 | 9232 ft | 277 kts | 49° |
| 2026-04-20 21:42 | 65.22558 | -18.59996 | 8853 ft | 271 kts | 49° |
| 2026-04-20 21:42 | 65.23714 | -18.56520 | 8503 ft | 265 kts | 49° |
| 2026-04-20 21:42 | 65.24858 | -18.53062 | 8168 ft | 265 kts | 49° |
| 2026-04-20 21:43 | 65.25988 | -18.49635 | 7866 ft | 266 kts | 49° |
| 2026-04-20 21:43 | 65.27128 | -18.46164 | 7593 ft | 265 kts | 49° |
| 2026-04-20 21:43 | 65.28270 | -18.42679 | 7280 ft | 266 kts | 50° |
| 2026-04-20 21:43 | 65.29416 | -18.39175 | 6792 ft | 269 kts | 50° |
| 2026-04-20 21:44 | 65.30573 | -18.35628 | 6304 ft | 272 kts | 50° |
| 2026-04-20 21:44 | 65.31745 | -18.32048 | 5821 ft | 276 kts | 48° |
| 2026-04-20 21:44 | 65.33201 | -18.29242 | 5355 ft | 274 kts | 22° |
| 2026-04-20 21:44 | 65.34963 | -18.27662 | 5214 ft | 262 kts | 19° |
| 2026-04-20 21:45 | 65.36622 | -18.26219 | 5195 ft | 247 kts | 18° |
| 2026-04-20 21:45 | 65.38182 | -18.24892 | 5171 ft | 234 kts | 18° |
| 2026-04-20 21:45 | 65.39680 | -18.23639 | 5132 ft | 221 kts | 17° |
| 2026-04-20 21:45 | 65.41091 | -18.22468 | 5006 ft | 213 kts | 17° |
| 2026-04-20 21:46 | 65.42467 | -18.21331 | 4857 ft | 205 kts | 17° |
| 2026-04-20 21:46 | 65.43801 | -18.20234 | 4669 ft | 200 kts | 17° |
| 2026-04-20 21:46 | 65.45086 | -18.19176 | 4531 ft | 190 kts | 17° |
| 2026-04-20 21:46 | 65.46308 | -18.18169 | 4286 ft | 183 kts | 17° |
| 2026-04-20 21:47 | 65.47515 | -18.17179 | 3776 ft | 189 kts | 17° |
| 2026-04-20 21:47 | 65.48749 | -18.16165 | 3443 ft | 182 kts | 18° |
| 2026-04-20 21:47 | 65.49910 | -18.15190 | 3223 ft | 173 kts | 20° |
| 2026-04-20 21:47 | 65.51004 | -18.14042 | 2853 ft | 172 kts | 23° |
| 2026-04-20 21:48 | 65.52084 | -18.12891 | 2509 ft | 169 kts | 23° |
| 2026-04-20 21:48 | 65.53146 | -18.11756 | 2027 ft | 168 kts | 24° |
| 2026-04-20 21:48 | 65.54211 | -18.10614 | 1504 ft | 167 kts | 24° |
| 2026-04-20 21:48 | 65.55248 | -18.09499 | 1202 ft | 151 kts | 24° |
| 2026-04-20 21:49 | 65.56205 | -18.08467 | 1265 ft | 159 kts | 24° |
| 2026-04-20 21:49 | 65.57246 | -18.07301 | 1246 ft | 172 kts | 24° |
| 2026-04-20 21:49 | 65.58363 | -18.06376 | 989 ft | 160 kts | 13° |
| 2026-04-20 21:49 | 65.59521 | -18.05740 | 773 ft | 193 kts | 13° |
| 2026-04-20 21:50 | 65.60809 | -18.04971 | 1820 ft | 202 kts | 13° |
| 2026-04-20 21:50 | 65.62239 | -18.04930 | 2930 ft | 218 kts | 344° |
| 2026-04-20 21:50 | 65.63723 | -18.05900 | 4154 ft | 233 kts | 347° |
| 2026-04-20 21:50 | 65.65430 | -18.06551 | 4683 ft | 270 kts | 351° |
| 2026-04-20 21:51 | 65.67303 | -18.07135 | 4623 ft | 265 kts | 354° |
| 2026-04-20 21:51 | 65.69086 | -18.07653 | 4631 ft | 256 kts | 345° |
| 2026-04-20 21:51 | 65.70761 | -18.09108 | 4648 ft | 259 kts | 335° |
| 2026-04-20 21:51 | 65.72445 | -18.10843 | 4651 ft | 259 kts | 338° |
| 2026-04-20 21:52 | 65.74102 | -18.12400 | 4640 ft | 257 kts | 338° |
| 2026-04-20 21:52 | 65.75789 | -18.13934 | 4642 ft | 258 kts | 339° |
| 2026-04-20 21:52 | 65.77488 | -18.15216 | 4640 ft | 259 kts | 351° |
| 2026-04-20 21:52 | 65.79301 | -18.15655 | 4649 ft | 260 kts | 354° |
| 2026-04-20 21:53 | 65.81083 | -18.16050 | 4631 ft | 260 kts | 354° |
| 2026-04-20 21:53 | 65.82895 | -18.16434 | 4621 ft | 259 kts | 354° |
| 2026-04-20 21:53 | 65.84685 | -18.16802 | 4626 ft | 260 kts | 354° |
| 2026-04-20 21:53 | 65.86500 | -18.17212 | 4607 ft | 259 kts | 348° |
| 2026-04-20 21:54 | 65.88157 | -18.18845 | 4636 ft | 257 kts | 327° |
| 2026-04-20 21:54 | 65.89670 | -18.21217 | 4622 ft | 259 kts | 327° |
| 2026-04-20 21:54 | 65.91176 | -18.23566 | 4610 ft | 258 kts | 326° |
| 2026-04-20 21:54 | 65.92652 | -18.25908 | 4619 ft | 245 kts | 326° |
| 2026-04-20 21:55 | 65.94044 | -18.28134 | 4600 ft | 229 kts | 326° |
| 2026-04-20 21:55 | 65.95341 | -18.30219 | 4601 ft | 222 kts | 326° |
| 2026-04-20 21:55 | 65.96672 | -18.32241 | 4629 ft | 231 kts | 335° |
| 2026-04-20 21:55 | 65.98185 | -18.33469 | 4623 ft | 231 kts | 343° |
| 2026-04-20 21:56 | 65.99734 | -18.34605 | 4623 ft | 230 kts | 342° |
| 2026-04-20 21:56 | 66.01266 | -18.35733 | 4620 ft | 230 kts | 342° |
| 2026-04-20 21:56 | 66.02792 | -18.36850 | 4624 ft | 231 kts | 342° |
| 2026-04-20 21:56 | 66.04329 | -18.37973 | 4633 ft | 233 kts | 342° |
| 2026-04-20 21:57 | 66.05902 | -18.39119 | 4629 ft | 232 kts | 342° |
| 2026-04-20 21:57 | 66.07434 | -18.40235 | 4625 ft | 232 kts | 342° |
| 2026-04-20 21:57 | 66.08984 | -18.41366 | 4630 ft | 233 kts | 342° |
| 2026-04-20 21:57 | 66.10541 | -18.42502 | 4624 ft | 233 kts | 342° |
| 2026-04-20 21:58 | 66.12108 | -18.43645 | 4628 ft | 233 kts | 342° |
| 2026-04-20 21:58 | 66.13661 | -18.44778 | 4625 ft | 232 kts | 342° |
| 2026-04-20 21:58 | 66.15193 | -18.45896 | 4616 ft | 231 kts | 341° |
| 2026-04-20 21:58 | 66.16715 | -18.47004 | 4849 ft | 226 kts | 341° |
| 2026-04-20 21:59 | 66.18246 | -18.48125 | 5147 ft | 232 kts | 341° |
| 2026-04-20 21:59 | 66.19786 | -18.49252 | 5425 ft | 233 kts | 341° |
| 2026-04-20 21:59 | 66.21361 | -18.50404 | 5708 ft | 234 kts | 340° |
| 2026-04-20 21:59 | 66.22929 | -18.51553 | 5981 ft | 234 kts | 341° |
| 2026-04-20 22:00 | 66.24483 | -18.52692 | 6265 ft | 236 kts | 340° |
| 2026-04-20 22:00 | 66.26052 | -18.53843 | 6537 ft | 236 kts | 340° |
| 2026-04-20 22:00 | 66.27637 | -18.55007 | 6821 ft | 237 kts | 340° |
| 2026-04-20 22:00 | 66.29093 | -18.56813 | 6938 ft | 246 kts | 315° |
| 2026-04-20 22:01 | 66.30084 | -18.60486 | 6957 ft | 263 kts | 287° |
| 2026-04-20 22:01 | 66.30228 | -18.64923 | 6931 ft | 257 kts | 259° |
| 2026-04-20 22:01 | 66.28271 | -18.71167 | 6947 ft | 268 kts | 208° |
| 2026-04-20 22:01 | 66.24709 | -18.71775 | 6925 ft | 278 kts | 173° |
| 2026-04-20 22:02 | 66.20909 | -18.70874 | 6906 ft | 275 kts | 180° |
| 2026-04-20 22:02 | 66.16760 | -18.70563 | 6926 ft | 329 kts | 181° |
| 2026-04-20 22:02 | 66.12356 | -18.70406 | 6911 ft | 328 kts | 182° |
| 2026-04-20 22:02 | 66.08013 | -18.70318 | 6908 ft | 328 kts | 182° |
| 2026-04-20 22:03 | 66.03143 | -18.70252 | 6895 ft | 368 kts | 181° |
| 2026-04-20 22:03 | 65.98218 | -18.70179 | 6887 ft | 371 kts | 181° |
| 2026-04-20 22:03 | 65.93223 | -18.70110 | 6882 ft | 371 kts | 181° |
| 2026-04-20 22:03 | 65.88251 | -18.70044 | 6879 ft | 372 kts | 181° |
| 2026-04-20 22:04 | 65.83267 | -18.69978 | 6873 ft | 371 kts | 181° |
| 2026-04-20 22:04 | 65.78308 | -18.69913 | 6871 ft | 373 kts | 181° |
| 2026-04-20 22:04 | 65.73191 | -18.69848 | 6877 ft | 373 kts | 181° |
| 2026-04-20 22:04 | 65.68115 | -18.69781 | 6875 ft | 374 kts | 181° |
| 2026-04-20 22:05 | 65.63045 | -18.69716 | 6873 ft | 363 kts | 181° |
| 2026-04-20 22:05 | 65.58345 | -18.69649 | 6873 ft | 319 kts | 181° |
| 2026-04-20 22:05 | 65.54349 | -18.69597 | 6872 ft | 284 kts | 181° |
| 2026-04-20 22:05 | 65.50978 | -18.69551 | 6860 ft | 241 kts | 182° |
| 2026-04-20 22:06 | 65.47555 | -18.69523 | 6896 ft | 270 kts | 181° |
| 2026-04-20 22:06 | 65.44289 | -18.69478 | 6881 ft | 268 kts | 181° |
| 2026-04-20 22:06 | 65.40972 | -18.69438 | 6881 ft | 274 kts | 181° |
| 2026-04-20 22:06 | 65.37595 | -18.69391 | 6874 ft | 260 kts | 181° |
| 2026-04-20 22:07 | 65.34180 | -18.69350 | 6885 ft | 268 kts | 181° |
| 2026-04-20 22:07 | 65.30682 | -18.69307 | 6885 ft | 272 kts | 181° |
| 2026-04-20 22:07 | 65.27135 | -18.69262 | 6892 ft | 269 kts | 181° |
| 2026-04-20 22:07 | 65.23483 | -18.69199 | 6522 ft | 270 kts | 177° |
| 2026-04-20 22:08 | 65.20493 | -18.65111 | 6339 ft | 264 kts | 118° |
| 2026-04-20 22:08 | 65.20319 | -18.56609 | 6124 ft | 268 kts | 61° |
| 2026-04-20 22:08 | 65.21980 | -18.52629 | 6005 ft | 243 kts | 22° |
| 2026-04-20 22:08 | 65.24799 | -18.49468 | 5979 ft | 216 kts | 31° |
| 2026-04-20 22:09 | 65.26826 | -18.45486 | 5978 ft | 193 kts | 41° |
| 2026-04-20 22:09 | 65.28549 | -18.41170 | 6015 ft | 186 kts | 45° |
| 2026-04-20 22:09 | 65.30145 | -18.36672 | 6006 ft | 190 kts | 47° |
| 2026-04-20 22:09 | 65.31529 | -18.32571 | 6005 ft | 191 kts | 49° |
| 2026-04-20 22:10 | 65.33502 | -18.28789 | 5989 ft | 191 kts | 16° |
| 2026-04-20 22:10 | 65.35947 | -18.26725 | 5442 ft | 198 kts | 17° |
| 2026-04-20 22:10 | 65.38506 | -18.24594 | 4735 ft | 208 kts | 17° |
| 2026-04-20 22:10 | 65.40918 | -18.22596 | 4746 ft | 177 kts | 17° |
| 2026-04-20 22:11 | 65.43166 | -18.20751 | 4232 ft | 177 kts | 17° |
| 2026-04-20 22:11 | 65.45350 | -18.18959 | 3779 ft | 171 kts | 17° |
| 2026-04-20 22:11 | 65.47472 | -18.17215 | 3438 ft | 171 kts | 18° |
| 2026-04-20 22:11 | 65.49512 | -18.15536 | 3075 ft | 164 kts | 18° |
| 2026-04-20 22:12 | 65.50497 | -18.14582 | 2916 ft | 145 kts | 23° |
| 2026-04-20 22:12 | 65.51427 | -18.13584 | 2641 ft | 146 kts | 23° |
| 2026-04-20 22:12 | 65.52338 | -18.12614 | 2371 ft | 139 kts | 23° |
| 2026-04-20 22:12 | 65.53194 | -18.11698 | 2126 ft | 134 kts | 23° |
| 2026-04-20 22:13 | 65.54048 | -18.10783 | 1934 ft | 136 kts | 24° |
| 2026-04-20 22:13 | 65.54902 | -18.09866 | 1711 ft | 137 kts | 24° |
| 2026-04-20 22:13 | 65.55768 | -18.08935 | 1462 ft | 134 kts | 24° |
| 2026-04-20 22:13 | 65.56615 | -18.08015 | 1239 ft | 134 kts | 25° |
| 2026-04-20 22:14 | 65.57456 | -18.07103 | 1079 ft | 132 kts | 20° |
| 2026-04-20 22:14 | 65.58324 | -18.06455 | 946 ft | 129 kts | 13° |
| 2026-04-20 22:14 | 65.59217 | -18.06050 | 844 ft | 131 kts | 4° |
| 2026-04-20 22:14 | 65.60123 | -18.06084 | 792 ft | 132 kts | 354° |
| 2026-04-20 22:15 | 65.61032 | -18.06305 | 781 ft | 129 kts | 354° |
| 2026-04-20 22:15 | 65.61925 | -18.06465 | 658 ft | 130 kts | 355° |
| 2026-04-20 22:15 | 65.62830 | -18.06639 | 490 ft | 131 kts | 354° |
| 2026-04-20 22:15 | 65.63722 | -18.06827 | 255 ft | 130 kts | 353° |
| 2026-04-20 22:16 | 65.64616 | -18.06999 | 50 ft | 129 kts | 354° |
| 2026-04-20 22:16 | 65.65453 | -18.07158 | 0 ft | 97 kts | 355° |
| 2026-04-20 22:16 | 65.65710 | -18.07214 | -5 ft | 2 kts | 329° |
| 2026-04-20 22:16 | 65.65713 | -18.07216 | -5 ft | 0 kts | 3° |
| 2026-04-20 22:17 | 65.65708 | -18.07196 | -5 ft | 5 kts | 166° |
| 2026-04-20 22:17 | 65.65659 | -18.07196 | -4 ft | 8 kts | 178° |
| 2026-04-20 22:17 | 65.65561 | -18.07175 | -2 ft | 20 kts | 176° |
| 2026-04-20 22:17 | 65.65480 | -18.07245 | 2 ft | 8 kts | 249° |